Barclay, Texas
Current Conditions -  °F | °C
As of 5:55 PM on Friday 24 Oct 2014 (Local Time) from KTPL Reporting Station
Clear Clear  
Wind Chill: 81°   Ceiling: Unl
Heat Index: 81°   Visibility: 10mi
Dew Point: 57°   Wind: 7mph
Humidity: 45%   Direction: 140°SE
Pressure: 30.08"   Gusts: NA
Location:  31.1912°N, 97.0719°W
Report Text: KTPL 242255Z AUTO 14006KT 10SM CLR 27/14 A3008 RMK AO1
Loading
Personal Weather Stations






























Interactive Weather Map
Tropical Storm Tracking
New forecast layout! Learn more

10-Day Weather Forecast

Advertisements
Track Severe Weather on mobile